Airfield :
LOGIN :

Register | Disclaimer

   EN    FR    IT 

 










Legend :    VFR   Marginal VFR   IFR   Intensive IFR   Very Intensive IFR
Visi :
Ceiling :
>= 8 km
>= 3000ft
5 to 8 km
1000 to 3000 ft
1500m to 5 km
500 to 1000 ft
800 to 1500m
200 to 500 ft
< 800m
< 200 ft
Symbols :   Thunderstorms  Fog  Heavy snow  Heavy precipitations  Wind > 20 kt
SIGMETs :     Misc.  Thunderstorms  Icing  Turbulence  Mountain Waves  Volcanic Ashes






- Airport Elevation : 1058 ft
- IATA code : SCN


EDDR - Saarbrücken

CURRENT METAR :
  • 071450Z 27013KT 220V320 CAVOK 12/M01 Q1017 NOSIG

EXPIRED METARs :
  • 071420Z 27011G24KT 240V320 CAVOK 12/M02 Q1017 NOSIG
  • 071350Z 27012KT 230V320 CAVOK 12/M01 Q1017 NOSIG
  • 071320Z 31012KT 280V340 CAVOK 12/M01 Q1017 NOSIG
  • 071250Z 29014KT 250V330 CAVOK 11/M00 Q1016 NOSIG
  • 071220Z 26015KT 240V310 9999 FEW042 SCT046 12/02 Q1016 NOSIG

TAF TAF EDDR
Valid from the 07 at 12:00 until the 08 at 12:00 UTC


071100Z 0712/0812 29015G25KT 9999 SCT035
BECMG 0713/0715 28011KT
BECMG 0715/0718 27004KT
BECMG 0807/0810 18008KT



MET'MAP, your aeronautical weather chart ! - Copyright ORBIFLY December 2007 - Disclaimer

ORBIFLY MET'MAP TEAM :

Programming & Development : Alexandra Zaïnal
Concept & original design : Baudouin d'Aumeries
Assistance for programming : Marc-Olivier Méhu
Technical & hardware support : Manuel Goepfert

Contact : metmap@orbifly.com




SOURCES & CREDITS :

   NOAA